sensor_id;sensor_type;location;lat;lon;timestamp;P1;durP1;ratioP1;P2;durP2;ratioP2
13331;SDS011;6735;51.456;12.626;2023-04-23T00:01:11;10.20;;;9.30;;
13331;SDS011;6735;51.456;12.626;2023-04-23T00:03:38;10.87;;;9.73;;
13331;SDS011;6735;51.456;12.626;2023-04-23T00:06:06;10.33;;;9.30;;
13331;SDS011;6735;51.456;12.626;2023-04-23T00:08:34;10.47;;;8.87;;
13331;SDS011;6735;51.456;12.626;2023-04-23T00:11:05;9.83;;;8.83;;
13331;SDS011;6735;51.456;12.626;2023-04-23T00:13:32;10.20;;;9.20;;
13331;SDS011;6735;51.456;12.626;2023-04-23T00:15:58;9.00;;;8.10;;
13331;SDS011;6735;51.456;12.626;2023-04-23T00:18:24;10.33;;;8.47;;
13331;SDS011;6735;51.456;12.626;2023-04-23T00:20:49;9.60;;;8.53;;
13331;SDS011;6735;51.456;12.626;2023-04-23T00:23:15;13.10;;;8.87;;
13331;SDS011;6735;51.456;12.626;2023-04-23T00:25:41;10.60;;;9.23;;
13331;SDS011;6735;51.456;12.626;2023-04-23T00:28:06;9.77;;;8.80;;
13331;SDS011;6735;51.456;12.626;2023-04-23T00:30:32;8.77;;;8.07;;
13331;SDS011;6735;51.456;12.626;2023-04-23T00:32:57;10.40;;;8.63;;
13331;SDS011;6735;51.456;12.626;2023-04-23T00:35:23;10.47;;;8.67;;
13331;SDS011;6735;51.456;12.626;2023-04-23T00:37:48;9.20;;;8.40;;
13331;SDS011;6735;51.456;12.626;2023-04-23T00:40:14;10.03;;;8.27;;
13331;SDS011;6735;51.456;12.626;2023-04-23T00:42:40;10.40;;;8.63;;
13331;SDS011;6735;51.456;12.626;2023-04-23T00:45:06;9.03;;;8.13;;
13331;SDS011;6735;51.456;12.626;2023-04-23T00:47:35;8.93;;;8.07;;
13331;SDS011;6735;51.456;12.626;2023-04-23T00:50:00;8.57;;;7.87;;
13331;SDS011;6735;51.456;12.626;2023-04-23T00:52:27;10.57;;;8.43;;
13331;SDS011;6735;51.456;12.626;2023-04-23T00:54:53;9.60;;;8.40;;
13331;SDS011;6735;51.456;12.626;2023-04-23T00:57:18;8.13;;;7.37;;
13331;SDS011;6735;51.456;12.626;2023-04-23T00:59:44;10.10;;;7.53;;
13331;SDS011;6735;51.456;12.626;2023-04-23T01:02:10;10.73;;;7.47;;
13331;SDS011;6735;51.456;12.626;2023-04-23T01:04:36;8.13;;;7.33;;
13331;SDS011;6735;51.456;12.626;2023-04-23T01:07:02;10.07;;;7.67;;
13331;SDS011;6735;51.456;12.626;2023-04-23T01:09:28;8.07;;;7.27;;
13331;SDS011;6735;51.456;12.626;2023-04-23T01:11:53;12.03;;;8.00;;
13331;SDS011;6735;51.456;12.626;2023-04-23T01:14:21;10.33;;;7.50;;
13331;SDS011;6735;51.456;12.626;2023-04-23T01:16:47;10.03;;;7.57;;
13331;SDS011;6735;51.456;12.626;2023-04-23T01:19:13;10.77;;;8.20;;
13331;SDS011;6735;51.456;12.626;2023-04-23T01:21:40;9.60;;;7.40;;
13331;SDS011;6735;51.456;12.626;2023-04-23T01:24:06;7.93;;;7.20;;
13331;SDS011;6735;51.456;12.626;2023-04-23T01:26:33;8.43;;;6.87;;
13331;SDS011;6735;51.456;12.626;2023-04-23T01:28:59;8.67;;;7.83;;
13331;SDS011;6735;51.456;12.626;2023-04-23T01:31:26;9.50;;;7.40;;
13331;SDS011;6735;51.456;12.626;2023-04-23T01:33:52;7.90;;;7.20;;
13331;SDS011;6735;51.456;12.626;2023-04-23T01:36:19;9.60;;;7.13;;
13331;SDS011;6735;51.456;12.626;2023-04-23T01:38:47;7.03;;;6.33;;
13331;SDS011;6735;51.456;12.626;2023-04-23T01:41:12;7.57;;;6.50;;
13331;SDS011;6735;51.456;12.626;2023-04-23T01:43:38;8.10;;;7.30;;
13331;SDS011;6735;51.456;12.626;2023-04-23T01:46:05;7.77;;;6.97;;
13331;SDS011;6735;51.456;12.626;2023-04-23T01:48:31;9.03;;;7.07;;
13331;SDS011;6735;51.456;12.626;2023-04-23T01:50:57;8.47;;;6.93;;
13331;SDS011;6735;51.456;12.626;2023-04-23T01:53:23;7.47;;;6.63;;
13331;SDS011;6735;51.456;12.626;2023-04-23T01:55:49;7.93;;;7.23;;
13331;SDS011;6735;51.456;12.626;2023-04-23T01:58:16;7.37;;;6.73;;
13331;SDS011;6735;51.456;12.626;2023-04-23T02:00:42;8.02;;;7.28;;
13331;SDS011;6735;51.456;12.626;2023-04-23T02:03:07;8.53;;;7.70;;
13331;SDS011;6735;51.456;12.626;2023-04-23T02:05:33;9.70;;;7.40;;
13331;SDS011;6735;51.456;12.626;2023-04-23T02:08:00;8.53;;;7.60;;
13331;SDS011;6735;51.456;12.626;2023-04-23T02:10:26;8.47;;;7.67;;
13331;SDS011;6735;51.456;12.626;2023-04-23T02:12:52;8.47;;;7.60;;
13331;SDS011;6735;51.456;12.626;2023-04-23T02:15:17;8.47;;;7.67;;
13331;SDS011;6735;51.456;12.626;2023-04-23T02:17:43;8.47;;;7.67;;
13331;SDS011;6735;51.456;12.626;2023-04-23T02:20:10;9.83;;;8.07;;
13331;SDS011;6735;51.456;12.626;2023-04-23T02:22:37;9.13;;;8.23;;
13331;SDS011;6735;51.456;12.626;2023-04-23T02:25:04;9.03;;;8.13;;
13331;SDS011;6735;51.456;12.626;2023-04-23T02:27:31;10.60;;;8.63;;
13331;SDS011;6735;51.456;12.626;2023-04-23T02:29:57;8.97;;;8.27;;
13331;SDS011;6735;51.456;12.626;2023-04-23T02:32:23;9.03;;;8.33;;
13331;SDS011;6735;51.456;12.626;2023-04-23T02:34:48;8.97;;;8.23;;
13331;SDS011;6735;51.456;12.626;2023-04-23T02:37:14;9.33;;;8.53;;
13331;SDS011;6735;51.456;12.626;2023-04-23T02:39:39;10.37;;;9.10;;
13331;SDS011;6735;51.456;12.626;2023-04-23T02:42:05;8.90;;;8.00;;
13331;SDS011;6735;51.456;12.626;2023-04-23T02:44:31;9.67;;;8.10;;
13331;SDS011;6735;51.456;12.626;2023-04-23T02:46:56;8.93;;;8.13;;
13331;SDS011;6735;51.456;12.626;2023-04-23T02:49:22;8.70;;;8.00;;
13331;SDS011;6735;51.456;12.626;2023-04-23T02:51:47;9.83;;;8.83;;
13331;SDS011;6735;51.456;12.626;2023-04-23T02:54:13;9.90;;;8.73;;
13331;SDS011;6735;51.456;12.626;2023-04-23T02:56:39;8.93;;;8.13;;
13331;SDS011;6735;51.456;12.626;2023-04-23T02:59:04;9.20;;;8.30;;
13331;SDS011;6735;51.456;12.626;2023-04-23T03:01:31;10.30;;;9.20;;
13331;SDS011;6735;51.456;12.626;2023-04-23T03:03:56;12.30;;;8.60;;
13331;SDS011;6735;51.456;12.626;2023-04-23T03:06:22;10.40;;;9.40;;
13331;SDS011;6735;51.456;12.626;2023-04-23T03:08:48;10.20;;;8.90;;
13331;SDS011;6735;51.456;12.626;2023-04-23T03:11:13;9.40;;;8.50;;
13331;SDS011;6735;51.456;12.626;2023-04-23T03:13:39;9.27;;;8.37;;
13331;SDS011;6735;51.456;12.626;2023-04-23T03:16:04;10.00;;;9.10;;
13331;SDS011;6735;51.456;12.626;2023-04-23T03:18:30;9.60;;;8.70;;
13331;SDS011;6735;51.456;12.626;2023-04-23T03:20:55;9.80;;;8.80;;
13331;SDS011;6735;51.456;12.626;2023-04-23T03:23:21;9.03;;;8.23;;
13331;SDS011;6735;51.456;12.626;2023-04-23T03:25:46;9.53;;;8.37;;
13331;SDS011;6735;51.456;12.626;2023-04-23T03:28:12;9.00;;;8.13;;
13331;SDS011;6735;51.456;12.626;2023-04-23T03:30:38;9.47;;;8.57;;
13331;SDS011;6735;51.456;12.626;2023-04-23T03:33:03;9.37;;;8.57;;
13331;SDS011;6735;51.456;12.626;2023-04-23T03:35:29;10.77;;;9.53;;
13331;SDS011;6735;51.456;12.626;2023-04-23T03:37:54;10.80;;;9.37;;
13331;SDS011;6735;51.456;12.626;2023-04-23T03:40:20;11.20;;;10.10;;
13331;SDS011;6735;51.456;12.626;2023-04-23T03:42:46;9.93;;;8.97;;
13331;SDS011;6735;51.456;12.626;2023-04-23T03:45:11;10.00;;;9.00;;
13331;SDS011;6735;51.456;12.626;2023-04-23T03:47:38;11.37;;;9.77;;
13331;SDS011;6735;51.456;12.626;2023-04-23T03:50:05;11.33;;;9.00;;
13331;SDS011;6735;51.456;12.626;2023-04-23T03:52:31;9.47;;;8.50;;
13331;SDS011;6735;51.456;12.626;2023-04-23T03:54:57;9.77;;;8.77;;
13331;SDS011;6735;51.456;12.626;2023-04-23T03:57:22;9.20;;;8.40;;
13331;SDS011;6735;51.456;12.626;2023-04-23T03:59:48;9.70;;;8.27;;
13331;SDS011;6735;51.456;12.626;2023-04-23T04:02:13;9.53;;;8.63;;
13331;SDS011;6735;51.456;12.626;2023-04-23T04:04:38;9.60;;;8.77;;
13331;SDS011;6735;51.456;12.626;2023-04-23T04:07:04;9.97;;;8.67;;
13331;SDS011;6735;51.456;12.626;2023-04-23T04:09:31;9.73;;;8.90;;
13331;SDS011;6735;51.456;12.626;2023-04-23T04:11:57;9.53;;;8.63;;
13331;SDS011;6735;51.456;12.626;2023-04-23T04:14:22;9.03;;;8.13;;
13331;SDS011;6735;51.456;12.626;2023-04-23T04:16:48;10.70;;;8.87;;
13331;SDS011;6735;51.456;12.626;2023-04-23T04:19:13;8.83;;;7.90;;
13331;SDS011;6735;51.456;12.626;2023-04-23T04:21:40;8.87;;;7.77;;
13331;SDS011;6735;51.456;12.626;2023-04-23T04:24:05;9.47;;;8.60;;
13331;SDS011;6735;51.456;12.626;2023-04-23T04:26:31;10.70;;;8.43;;
13331;SDS011;6735;51.456;12.626;2023-04-23T04:28:57;8.70;;;7.90;;
13331;SDS011;6735;51.456;12.626;2023-04-23T04:31:24;9.33;;;8.43;;
13331;SDS011;6735;51.456;12.626;2023-04-23T04:33:52;8.47;;;7.87;;
13331;SDS011;6735;51.456;12.626;2023-04-23T04:36:17;8.83;;;8.03;;
13331;SDS011;6735;51.456;12.626;2023-04-23T04:38:43;8.63;;;7.83;;
13331;SDS011;6735;51.456;12.626;2023-04-23T04:41:08;8.63;;;7.77;;
13331;SDS011;6735;51.456;12.626;2023-04-23T04:43:35;9.90;;;7.90;;
13331;SDS011;6735;51.456;12.626;2023-04-23T04:46:01;9.73;;;8.57;;
13331;SDS011;6735;51.456;12.626;2023-04-23T04:48:27;10.07;;;8.23;;
13331;SDS011;6735;51.456;12.626;2023-04-23T04:50:53;9.17;;;8.33;;
13331;SDS011;6735;51.456;12.626;2023-04-23T04:53:18;9.53;;;8.60;;
13331;SDS011;6735;51.456;12.626;2023-04-23T04:55:44;8.40;;;7.77;;
13331;SDS011;6735;51.456;12.626;2023-04-23T04:58:09;8.83;;;8.10;;
13331;SDS011;6735;51.456;12.626;2023-04-23T05:00:35;9.27;;;8.47;;
13331;SDS011;6735;51.456;12.626;2023-04-23T05:03:00;9.50;;;8.53;;
13331;SDS011;6735;51.456;12.626;2023-04-23T05:05:26;8.93;;;8.20;;
13331;SDS011;6735;51.456;12.626;2023-04-23T05:07:52;9.50;;;8.30;;
13331;SDS011;6735;51.456;12.626;2023-04-23T05:10:18;8.60;;;7.80;;
13331;SDS011;6735;51.456;12.626;2023-04-23T05:12:44;8.93;;;8.17;;
13331;SDS011;6735;51.456;12.626;2023-04-23T05:15:11;8.27;;;7.43;;
13331;SDS011;6735;51.456;12.626;2023-04-23T05:17:37;8.93;;;8.13;;
13331;SDS011;6735;51.456;12.626;2023-04-23T05:20:03;8.77;;;7.87;;
13331;SDS011;6735;51.456;12.626;2023-04-23T05:22:29;8.97;;;8.17;;
13331;SDS011;6735;51.456;12.626;2023-04-23T05:24:55;8.37;;;7.50;;
13331;SDS011;6735;51.456;12.626;2023-04-23T05:27:21;8.60;;;7.80;;
13331;SDS011;6735;51.456;12.626;2023-04-23T05:29:46;9.47;;;7.87;;
13331;SDS011;6735;51.456;12.626;2023-04-23T05:32:11;9.13;;;8.23;;
13331;SDS011;6735;51.456;12.626;2023-04-23T05:34:38;8.70;;;7.80;;
13331;SDS011;6735;51.456;12.626;2023-04-23T05:37:03;8.70;;;7.90;;
13331;SDS011;6735;51.456;12.626;2023-04-23T05:39:29;10.00;;;7.90;;
13331;SDS011;6735;51.456;12.626;2023-04-23T05:41:55;8.73;;;8.03;;
13331;SDS011;6735;51.456;12.626;2023-04-23T05:44:22;9.17;;;8.27;;
13331;SDS011;6735;51.456;12.626;2023-04-23T05:46:47;8.50;;;7.80;;
13331;SDS011;6735;51.456;12.626;2023-04-23T05:49:13;8.23;;;7.53;;
13331;SDS011;6735;51.456;12.626;2023-04-23T05:51:38;8.87;;;8.00;;
13331;SDS011;6735;51.456;12.626;2023-04-23T05:54:04;8.27;;;7.50;;
13331;SDS011;6735;51.456;12.626;2023-04-23T05:56:29;7.93;;;7.23;;
13331;SDS011;6735;51.456;12.626;2023-04-23T05:58:55;8.07;;;7.40;;
13331;SDS011;6735;51.456;12.626;2023-04-23T06:01:20;8.60;;;7.67;;
13331;SDS011;6735;51.456;12.626;2023-04-23T06:03:46;7.70;;;7.00;;
13331;SDS011;6735;51.456;12.626;2023-04-23T06:06:12;7.83;;;7.13;;
13331;SDS011;6735;51.456;12.626;2023-04-23T06:08:37;8.03;;;7.23;;
13331;SDS011;6735;51.456;12.626;2023-04-23T06:11:03;8.30;;;7.50;;
13331;SDS011;6735;51.456;12.626;2023-04-23T06:13:29;8.27;;;7.57;;
13331;SDS011;6735;51.456;12.626;2023-04-23T06:15:55;7.07;;;6.47;;
13331;SDS011;6735;51.456;12.626;2023-04-23T06:18:21;8.33;;;5.67;;
13331;SDS011;6735;51.456;12.626;2023-04-23T06:20:46;5.47;;;4.97;;
13331;SDS011;6735;51.456;12.626;2023-04-23T06:23:12;5.20;;;4.80;;
13331;SDS011;6735;51.456;12.626;2023-04-23T06:25:38;5.57;;;4.70;;
13331;SDS011;6735;51.456;12.626;2023-04-23T06:28:04;5.37;;;4.87;;
13331;SDS011;6735;51.456;12.626;2023-04-23T06:30:30;5.03;;;4.60;;
13331;SDS011;6735;51.456;12.626;2023-04-23T06:32:55;5.53;;;4.70;;
13331;SDS011;6735;51.456;12.626;2023-04-23T06:35:21;5.90;;;5.10;;
13331;SDS011;6735;51.456;12.626;2023-04-23T06:37:46;6.07;;;5.53;;
13331;SDS011;6735;51.456;12.626;2023-04-23T06:40:12;5.13;;;4.80;;
13331;SDS011;6735;51.456;12.626;2023-04-23T06:42:38;6.20;;;4.50;;
13331;SDS011;6735;51.456;12.626;2023-04-23T06:45:03;7.93;;;4.83;;
13331;SDS011;6735;51.456;12.626;2023-04-23T06:47:29;4.83;;;4.43;;
13331;SDS011;6735;51.456;12.626;2023-04-23T06:49:55;4.80;;;4.40;;
13331;SDS011;6735;51.456;12.626;2023-04-23T06:52:24;4.60;;;4.20;;
13331;SDS011;6735;51.456;12.626;2023-04-23T06:54:50;4.87;;;4.47;;
13331;SDS011;6735;51.456;12.626;2023-04-23T06:57:15;4.63;;;4.10;;
13331;SDS011;6735;51.456;12.626;2023-04-23T06:59:41;4.83;;;4.03;;
13331;SDS011;6735;51.456;12.626;2023-04-23T07:02:06;4.20;;;3.90;;
13331;SDS011;6735;51.456;12.626;2023-04-23T07:04:32;5.50;;;4.03;;
13331;SDS011;6735;51.456;12.626;2023-04-23T07:06:57;4.57;;;4.17;;
13331;SDS011;6735;51.456;12.626;2023-04-23T07:09:24;4.27;;;3.97;;
13331;SDS011;6735;51.456;12.626;2023-04-23T07:11:50;4.10;;;3.60;;
13331;SDS011;6735;51.456;12.626;2023-04-23T07:14:16;6.10;;;4.00;;
13331;SDS011;6735;51.456;12.626;2023-04-23T07:16:41;4.33;;;4.03;;
13331;SDS011;6735;51.456;12.626;2023-04-23T07:19:07;4.60;;;4.20;;
13331;SDS011;6735;51.456;12.626;2023-04-23T07:21:32;4.90;;;4.47;;
13331;SDS011;6735;51.456;12.626;2023-04-23T07:23:58;4.30;;;4.00;;
13331;SDS011;6735;51.456;12.626;2023-04-23T07:26:24;4.57;;;4.10;;
13331;SDS011;6735;51.456;12.626;2023-04-23T07:28:51;4.57;;;4.17;;
13331;SDS011;6735;51.456;12.626;2023-04-23T07:31:17;5.00;;;3.67;;
13331;SDS011;6735;51.456;12.626;2023-04-23T07:33:43;5.50;;;3.80;;
13331;SDS011;6735;51.456;12.626;2023-04-23T07:36:09;4.53;;;4.20;;
13331;SDS011;6735;51.456;12.626;2023-04-23T07:38:34;4.57;;;4.17;;
13331;SDS011;6735;51.456;12.626;2023-04-23T07:41:00;4.83;;;4.33;;
13331;SDS011;6735;51.456;12.626;2023-04-23T07:43:27;4.23;;;3.87;;
13331;SDS011;6735;51.456;12.626;2023-04-23T07:45:52;4.50;;;4.20;;
13331;SDS011;6735;51.456;12.626;2023-04-23T07:48:18;4.90;;;4.53;;
13331;SDS011;6735;51.456;12.626;2023-04-23T07:50:43;4.67;;;4.33;;
13331;SDS011;6735;51.456;12.626;2023-04-23T07:53:08;4.90;;;4.47;;
13331;SDS011;6735;51.456;12.626;2023-04-23T07:55:34;5.27;;;4.77;;
13331;SDS011;6735;51.456;12.626;2023-04-23T07:58:00;5.00;;;4.60;;
13331;SDS011;6735;51.456;12.626;2023-04-23T08:00:25;4.97;;;4.50;;
13331;SDS011;6735;51.456;12.626;2023-04-23T08:02:52;4.73;;;4.23;;
13331;SDS011;6735;51.456;12.626;2023-04-23T08:05:17;4.53;;;4.13;;
13331;SDS011;6735;51.456;12.626;2023-04-23T08:07:43;4.80;;;4.33;;
13331;SDS011;6735;51.456;12.626;2023-04-23T08:10:08;3.97;;;3.57;;
13331;SDS011;6735;51.456;12.626;2023-04-23T08:12:34;4.23;;;3.90;;
13331;SDS011;6735;51.456;12.626;2023-04-23T08:15:00;4.40;;;4.00;;
13331;SDS011;6735;51.456;12.626;2023-04-23T08:17:26;6.20;;;4.60;;
13331;SDS011;6735;51.456;12.626;2023-04-23T08:19:51;5.50;;;5.00;;
13331;SDS011;6735;51.456;12.626;2023-04-23T08:22:17;7.50;;;5.70;;
13331;SDS011;6735;51.456;12.626;2023-04-23T08:24:43;6.13;;;5.63;;
13331;SDS011;6735;51.456;12.626;2023-04-23T08:27:10;6.70;;;6.13;;
13331;SDS011;6735;51.456;12.626;2023-04-23T08:29:35;6.43;;;6.00;;
13331;SDS011;6735;51.456;12.626;2023-04-23T08:32:01;6.23;;;5.70;;
13331;SDS011;6735;51.456;12.626;2023-04-23T08:34:26;5.30;;;4.90;;
13331;SDS011;6735;51.456;12.626;2023-04-23T08:36:52;5.13;;;4.70;;
13331;SDS011;6735;51.456;12.626;2023-04-23T08:39:18;4.33;;;3.97;;
13331;SDS011;6735;51.456;12.626;2023-04-23T08:41:43;4.50;;;4.17;;
13331;SDS011;6735;51.456;12.626;2023-04-23T08:44:22;4.70;;;4.30;;
13331;SDS011;6735;51.456;12.626;2023-04-23T08:46:49;4.47;;;4.17;;
13331;SDS011;6735;51.456;12.626;2023-04-23T08:49:18;4.30;;;4.00;;
13331;SDS011;6735;51.456;12.626;2023-04-23T08:51:48;3.90;;;3.60;;
13331;SDS011;6735;51.456;12.626;2023-04-23T08:54:26;3.43;;;3.23;;
13331;SDS011;6735;51.456;12.626;2023-04-23T08:56:56;3.67;;;3.37;;
13331;SDS011;6735;51.456;12.626;2023-04-23T08:59:24;3.80;;;3.50;;
13331;SDS011;6735;51.456;12.626;2023-04-23T09:01:50;3.30;;;3.10;;
13331;SDS011;6735;51.456;12.626;2023-04-23T09:04:17;3.53;;;3.13;;
13331;SDS011;6735;51.456;12.626;2023-04-23T09:06:44;3.23;;;3.03;;
13331;SDS011;6735;51.456;12.626;2023-04-23T09:09:10;3.33;;;3.13;;
13331;SDS011;6735;51.456;12.626;2023-04-23T09:11:38;3.60;;;3.30;;
13331;SDS011;6735;51.456;12.626;2023-04-23T09:14:03;3.30;;;3.10;;
13331;SDS011;6735;51.456;12.626;2023-04-23T09:16:28;3.57;;;3.37;;
13331;SDS011;6735;51.456;12.626;2023-04-23T09:18:54;4.00;;;3.70;;
13331;SDS011;6735;51.456;12.626;2023-04-23T09:21:20;5.87;;;5.03;;
13331;SDS011;6735;51.456;12.626;2023-04-23T09:23:49;4.70;;;4.40;;
13331;SDS011;6735;51.456;12.626;2023-04-23T09:26:19;4.57;;;4.13;;
13331;SDS011;6735;51.456;12.626;2023-04-23T09:28:47;4.63;;;4.27;;
13331;SDS011;6735;51.456;12.626;2023-04-23T09:31:18;5.10;;;4.80;;
13331;SDS011;6735;51.456;12.626;2023-04-23T09:33:49;5.40;;;5.00;;
13331;SDS011;6735;51.456;12.626;2023-04-23T09:36:16;5.57;;;5.17;;
13331;SDS011;6735;51.456;12.626;2023-04-23T09:38:45;6.33;;;5.83;;
13331;SDS011;6735;51.456;12.626;2023-04-23T09:41:24;6.77;;;6.23;;
13331;SDS011;6735;51.456;12.626;2023-04-23T09:43:51;7.10;;;6.50;;
13331;SDS011;6735;51.456;12.626;2023-04-23T09:46:18;7.30;;;6.70;;
13331;SDS011;6735;51.456;12.626;2023-04-23T09:48:56;7.20;;;6.70;;
13331;SDS011;6735;51.456;12.626;2023-04-23T09:51:23;7.63;;;7.03;;
13331;SDS011;6735;51.456;12.626;2023-04-23T09:53:49;7.33;;;6.77;;
13331;SDS011;6735;51.456;12.626;2023-04-23T09:56:14;6.90;;;6.40;;
13331;SDS011;6735;51.456;12.626;2023-04-23T09:58:40;7.50;;;6.90;;
13331;SDS011;6735;51.456;12.626;2023-04-23T10:01:06;7.90;;;7.27;;
13331;SDS011;6735;51.456;12.626;2023-04-23T10:03:33;7.80;;;7.20;;
13331;SDS011;6735;51.456;12.626;2023-04-23T10:05:58;8.07;;;7.47;;
13331;SDS011;6735;51.456;12.626;2023-04-23T10:08:25;5.67;;;5.27;;
13331;SDS011;6735;51.456;12.626;2023-04-23T10:10:52;6.30;;;5.90;;
13331;SDS011;6735;51.456;12.626;2023-04-23T10:13:17;5.67;;;5.27;;
13331;SDS011;6735;51.456;12.626;2023-04-23T10:15:44;6.63;;;6.13;;
13331;SDS011;6735;51.456;12.626;2023-04-23T10:18:11;6.30;;;4.97;;
13331;SDS011;6735;51.456;12.626;2023-04-23T10:20:39;5.63;;;5.23;;
13331;SDS011;6735;51.456;12.626;2023-04-23T10:23:05;5.70;;;5.30;;
13331;SDS011;6735;51.456;12.626;2023-04-23T10:25:33;6.10;;;5.70;;
13331;SDS011;6735;51.456;12.626;2023-04-23T10:28:00;6.00;;;5.50;;
13331;SDS011;6735;51.456;12.626;2023-04-23T10:30:28;5.37;;;5.00;;
13331;SDS011;6735;51.456;12.626;2023-04-23T10:32:54;4.57;;;4.27;;
13331;SDS011;6735;51.456;12.626;2023-04-23T10:35:21;4.77;;;4.47;;
13331;SDS011;6735;51.456;12.626;2023-04-23T10:37:46;4.20;;;3.90;;
13331;SDS011;6735;51.456;12.626;2023-04-23T10:40:13;4.37;;;4.07;;
13331;SDS011;6735;51.456;12.626;2023-04-23T10:42:42;4.93;;;4.63;;
13331;SDS011;6735;51.456;12.626;2023-04-23T10:47:41;4.87;;;4.40;;
13331;SDS011;6735;51.456;12.626;2023-04-23T10:52:50;4.73;;;4.43;;
13331;SDS011;6735;51.456;12.626;2023-04-23T10:55:18;4.40;;;4.10;;
13331;SDS011;6735;51.456;12.626;2023-04-23T10:57:59;4.70;;;4.30;;
13331;SDS011;6735;51.456;12.626;2023-04-23T11:00:42;5.10;;;4.73;;
13331;SDS011;6735;51.456;12.626;2023-04-23T11:03:25;5.00;;;4.60;;
13331;SDS011;6735;51.456;12.626;2023-04-23T11:05:51;5.30;;;4.93;;
13331;SDS011;6735;51.456;12.626;2023-04-23T11:08:17;4.40;;;4.10;;
13331;SDS011;6735;51.456;12.626;2023-04-23T11:10:57;4.37;;;4.07;;
13331;SDS011;6735;51.456;12.626;2023-04-23T11:13:27;4.43;;;4.03;;
13331;SDS011;6735;51.456;12.626;2023-04-23T11:16:12;4.80;;;4.50;;
13331;SDS011;6735;51.456;12.626;2023-04-23T11:24:21;4.60;;;4.23;;
13331;SDS011;6735;51.456;12.626;2023-04-23T11:26:47;4.73;;;4.33;;
13331;SDS011;6735;51.456;12.626;2023-04-23T11:29:17;4.17;;;3.87;;
13331;SDS011;6735;51.456;12.626;2023-04-23T11:31:45;3.70;;;3.50;;
13331;SDS011;6735;51.456;12.626;2023-04-23T11:34:11;3.10;;;2.90;;
13331;SDS011;6735;51.456;12.626;2023-04-23T11:36:37;3.80;;;3.50;;
13331;SDS011;6735;51.456;12.626;2023-04-23T11:39:03;4.00;;;3.70;;
13331;SDS011;6735;51.456;12.626;2023-04-23T11:41:30;4.20;;;3.80;;
13331;SDS011;6735;51.456;12.626;2023-04-23T11:43:55;4.50;;;4.20;;
13331;SDS011;6735;51.456;12.626;2023-04-23T11:46:22;5.07;;;4.47;;
13331;SDS011;6735;51.456;12.626;2023-04-23T11:48:48;3.50;;;3.30;;
13331;SDS011;6735;51.456;12.626;2023-04-23T11:51:13;4.67;;;3.90;;
13331;SDS011;6735;51.456;12.626;2023-04-23T11:53:44;4.13;;;3.83;;
13331;SDS011;6735;51.456;12.626;2023-04-23T11:56:10;3.73;;;3.43;;
13331;SDS011;6735;51.456;12.626;2023-04-23T11:58:36;3.30;;;3.00;;
13331;SDS011;6735;51.456;12.626;2023-04-23T12:01:01;2.73;;;2.53;;
13331;SDS011;6735;51.456;12.626;2023-04-23T12:03:27;2.20;;;2.00;;
13331;SDS011;6735;51.456;12.626;2023-04-23T12:05:54;2.00;;;1.90;;
13331;SDS011;6735;51.456;12.626;2023-04-23T12:08:20;2.60;;;2.40;;
13331;SDS011;6735;51.456;12.626;2023-04-23T12:10:48;2.40;;;2.20;;
13331;SDS011;6735;51.456;12.626;2023-04-23T12:13:15;2.50;;;2.30;;
13331;SDS011;6735;51.456;12.626;2023-04-23T12:15:46;2.47;;;2.30;;
13331;SDS011;6735;51.456;12.626;2023-04-23T12:18:16;2.60;;;2.40;;
13331;SDS011;6735;51.456;12.626;2023-04-23T12:20:42;2.20;;;2.10;;
13331;SDS011;6735;51.456;12.626;2023-04-23T12:23:08;2.73;;;2.53;;
13331;SDS011;6735;51.456;12.626;2023-04-23T12:25:34;2.50;;;2.40;;
13331;SDS011;6735;51.456;12.626;2023-04-23T12:28:01;2.40;;;2.20;;
13331;SDS011;6735;51.456;12.626;2023-04-23T12:30:32;2.37;;;2.17;;
13331;SDS011;6735;51.456;12.626;2023-04-23T12:33:02;2.30;;;2.20;;
13331;SDS011;6735;51.456;12.626;2023-04-23T12:36:10;2.50;;;2.40;;
13331;SDS011;6735;51.456;12.626;2023-04-23T12:38:35;3.17;;;2.93;;
13331;SDS011;6735;51.456;12.626;2023-04-23T12:41:00;3.57;;;3.27;;
13331;SDS011;6735;51.456;12.626;2023-04-23T12:43:26;2.70;;;2.50;;
13331;SDS011;6735;51.456;12.626;2023-04-23T12:45:52;2.40;;;2.30;;
13331;SDS011;6735;51.456;12.626;2023-04-23T12:48:18;2.40;;;2.20;;
13331;SDS011;6735;51.456;12.626;2023-04-23T12:50:44;2.83;;;2.40;;
13331;SDS011;6735;51.456;12.626;2023-04-23T12:53:10;2.70;;;2.50;;
13331;SDS011;6735;51.456;12.626;2023-04-23T12:55:36;2.33;;;2.20;;
13331;SDS011;6735;51.456;12.626;2023-04-23T12:58:03;2.90;;;2.13;;
13331;SDS011;6735;51.456;12.626;2023-04-23T13:00:29;2.50;;;2.30;;
13331;SDS011;6735;51.456;12.626;2023-04-23T13:02:55;2.20;;;2.10;;
13331;SDS011;6735;51.456;12.626;2023-04-23T13:05:20;3.50;;;2.10;;
13331;SDS011;6735;51.456;12.626;2023-04-23T13:07:46;2.07;;;1.97;;
13331;SDS011;6735;51.456;12.626;2023-04-23T13:10:11;2.47;;;2.00;;
13331;SDS011;6735;51.456;12.626;2023-04-23T13:12:37;2.00;;;1.90;;
13331;SDS011;6735;51.456;12.626;2023-04-23T13:15:04;2.40;;;1.97;;
13331;SDS011;6735;51.456;12.626;2023-04-23T13:17:30;2.13;;;2.03;;
13331;SDS011;6735;51.456;12.626;2023-04-23T13:19:56;2.07;;;1.80;;
13331;SDS011;6735;51.456;12.626;2023-04-23T13:22:22;2.00;;;1.90;;
13331;SDS011;6735;51.456;12.626;2023-04-23T13:24:52;2.40;;;1.70;;
13331;SDS011;6735;51.456;12.626;2023-04-23T13:27:18;1.77;;;1.67;;
13331;SDS011;6735;51.456;12.626;2023-04-23T13:29:44;1.77;;;1.53;;
13331;SDS011;6735;51.456;12.626;2023-04-23T13:32:09;2.30;;;1.67;;
13331;SDS011;6735;51.456;12.626;2023-04-23T13:34:35;1.70;;;1.60;;
13331;SDS011;6735;51.456;12.626;2023-04-23T13:37:01;1.80;;;1.70;;
13331;SDS011;6735;51.456;12.626;2023-04-23T13:39:29;1.77;;;1.67;;
13331;SDS011;6735;51.456;12.626;2023-04-23T13:41:55;1.73;;;1.63;;
13331;SDS011;6735;51.456;12.626;2023-04-23T13:44:21;3.20;;;1.77;;
13331;SDS011;6735;51.456;12.626;2023-04-23T13:46:46;1.70;;;1.60;;
13331;SDS011;6735;51.456;12.626;2023-04-23T13:49:12;1.60;;;1.50;;
13331;SDS011;6735;51.456;12.626;2023-04-23T13:51:38;2.43;;;1.47;;
13331;SDS011;6735;51.456;12.626;2023-04-23T13:54:03;1.70;;;1.60;;
13331;SDS011;6735;51.456;12.626;2023-04-23T13:56:30;1.50;;;1.40;;
13331;SDS011;6735;51.456;12.626;2023-04-23T13:58:55;2.00;;;1.80;;
13331;SDS011;6735;51.456;12.626;2023-04-23T14:01:26;2.10;;;1.87;;
13331;SDS011;6735;51.456;12.626;2023-04-23T14:03:52;1.87;;;1.53;;
13331;SDS011;6735;51.456;12.626;2023-04-23T14:06:17;1.77;;;1.63;;
13331;SDS011;6735;51.456;12.626;2023-04-23T14:08:42;1.70;;;1.60;;
13331;SDS011;6735;51.456;12.626;2023-04-23T14:11:08;2.93;;;1.70;;
13331;SDS011;6735;51.456;12.626;2023-04-23T14:13:34;1.60;;;1.50;;
13331;SDS011;6735;51.456;12.626;2023-04-23T14:16:01;1.90;;;1.70;;
13331;SDS011;6735;51.456;12.626;2023-04-23T14:18:26;2.43;;;1.83;;
13331;SDS011;6735;51.456;12.626;2023-04-23T14:20:52;1.80;;;1.40;;
13331;SDS011;6735;51.456;12.626;2023-04-23T14:25:46;1.53;;;1.43;;
13331;SDS011;6735;51.456;12.626;2023-04-23T14:28:26;1.60;;;1.50;;
13331;SDS011;6735;51.456;12.626;2023-04-23T14:31:08;2.43;;;1.70;;
13331;SDS011;6735;51.456;12.626;2023-04-23T14:33:33;1.60;;;1.50;;
13331;SDS011;6735;51.456;12.626;2023-04-23T14:35:59;1.67;;;1.53;;
13331;SDS011;6735;51.456;12.626;2023-04-23T14:38:25;1.53;;;1.40;;
13331;SDS011;6735;51.456;12.626;2023-04-23T14:40:50;1.60;;;1.50;;
13331;SDS011;6735;51.456;12.626;2023-04-23T14:43:16;1.70;;;1.60;;
13331;SDS011;6735;51.456;12.626;2023-04-23T14:45:42;3.27;;;2.00;;
13331;SDS011;6735;51.456;12.626;2023-04-23T14:48:07;2.03;;;1.70;;
13331;SDS011;6735;51.456;12.626;2023-04-23T14:50:33;2.60;;;1.50;;
13331;SDS011;6735;51.456;12.626;2023-04-23T14:52:58;1.80;;;1.70;;
13331;SDS011;6735;51.456;12.626;2023-04-23T14:55:24;1.87;;;1.77;;